»·PEaware :: N347CD KLAX-KSNA

N347CD :: KLAX-KSNA

FLIGHT INFORMATION

Flight Status: Arrived
Operator: Privately registered:
United States
More flights under this callsign
Pilot: Daniel C. (3642)
Aircraft: BEECH AIRCRAFT BONANZA
(BE36)
More flights by this aircraft type
Origin: KLAX Los Angeles Intl
United States
Destination: KSNA John Wayne-Orange Co
United States
More flights between these airports :: More routes between these airports
Route: SLI8 SLI KSNA
File this flight plan on PilotEdge
Remarks: +CW / VTF ILS RWY 20R
Altitude:
(Current/Filed)
4,000ft
Speed:
(Current/Filed)
165kts
Departed: 05-Jan-20 09:10 AM
Arrived: 05-Jan-20 09:48 AM
Distance/Time
Traveled:
31nm/0:38
Distance/Time
To Go:
Arrived

Flight Plot

Page will automatically refresh every two minutes.

Flight plan parsing failed; only flown route is shown


Map Options




Map Legend


Flown Route
Filed Route
Departure Airport
Arrival Airport
Navaid (VOR, NDB)
Fix

Horizontal Profiles

Position Reports

Time Latitude Longitude Heading Altitude Ground
Speed
05-Jan-20 08:51 33.939452 -118.410339 83 129ft 0kts
05-Jan-20 08:52 33.939452 -118.410339 83 129ft 0kts
05-Jan-20 08:53 33.939452 -118.410339 83 129ft 0kts
05-Jan-20 08:54 33.939452 -118.410339 83 129ft 0kts
05-Jan-20 08:55 33.939452 -118.410339 83 129ft 0kts
05-Jan-20 08:56 33.939452 -118.410339 83 129ft 0kts
05-Jan-20 08:57 33.939452 -118.410339 83 129ft 0kts
05-Jan-20 08:58 33.939452 -118.410339 83 129ft 0kts
05-Jan-20 08:59 33.939452 -118.410339 83 129ft 0kts
05-Jan-20 09:00 33.939452 -118.410339 83 129ft 0kts
05-Jan-20 09:01 33.939452 -118.410336 82 129ft 0kts
05-Jan-20 09:02 33.938509 -118.410654 81 129ft 12kts
05-Jan-20 09:03 33.938386 -118.407339 139 129ft 20kts
05-Jan-20 09:04 33.938698 -118.400726 83 129ft 26kts
05-Jan-20 09:05 33.939535 -118.392611 82 129ft 19kts
05-Jan-20 09:06 33.940387 -118.384254 78 129ft 24kts
05-Jan-20 09:07 33.940656 -118.380555 123 129ft 0kts
05-Jan-20 09:08 33.939848 -118.380432 231 129ft 9kts
05-Jan-20 09:09 33.937747 -118.401033 260 467ft 97kts
05-Jan-20 09:10 33.930145 -118.432488 247 1249ft 104kts
05-Jan-20 09:11 33.914530 -118.461707 230 1484ft 117kts
05-Jan-20 09:12 33.879109 -118.476880 172 1902ft 156kts
05-Jan-20 09:13 33.839063 -118.460814 145 2459ft 153kts
05-Jan-20 09:14 33.803569 -118.431746 145 3360ft 151kts
05-Jan-20 09:15 33.768092 -118.402686 145 3643ft 157kts
05-Jan-20 09:16 33.731658 -118.372813 145 3643ft 159kts
05-Jan-20 09:17 33.695117 -118.342848 145 3624ft 159kts
05-Jan-20 09:18 33.658409 -118.312736 145 3624ft 159kts
05-Jan-20 09:19 33.622262 -118.283085 145 3622ft 153kts
05-Jan-20 09:20 33.587658 -118.254526 139 3619ft 150kts
05-Jan-20 09:21 33.605023 -118.221854 25 3626ft 152kts
05-Jan-20 09:22 33.640240 -118.192845 37 3625ft 154kts
05-Jan-20 09:23 33.674048 -118.160515 38 3624ft 160kts
05-Jan-20 09:24 33.707072 -118.128641 38 3623ft 148kts
05-Jan-20 09:25 33.740108 -118.096681 38 3627ft 160kts
05-Jan-20 09:26 33.775294 -118.062627 38 3625ft 163kts
05-Jan-20 09:27 33.798779 -118.016497 64 3624ft 164kts
05-Jan-20 09:28 33.818083 -117.968514 64 3624ft 164kts
05-Jan-20 09:29 33.839100 -117.916233 64 3625ft 171kts
05-Jan-20 09:30 33.859215 -117.866158 64 3619ft 155kts
05-Jan-20 09:31 33.877103 -117.821528 64 3622ft 143kts
05-Jan-20 09:32 33.894067 -117.779154 64 3624ft 139kts
05-Jan-20 09:33 33.910371 -117.738383 64 3623ft 132kts
05-Jan-20 09:34 33.932010 -117.705995 28 3623ft 124kts
05-Jan-20 09:35 33.964486 -117.693999 331 3477ft 131kts
05-Jan-20 09:36 33.954452 -117.721221 163 3174ft 136kts
05-Jan-20 09:37 33.921097 -117.712725 208 3123ft 124kts
05-Jan-20 09:38 33.891694 -117.731539 208 3123ft 116kts
05-Jan-20 09:39 33.863288 -117.749637 208 3124ft 115kts
05-Jan-20 09:40 33.834827 -117.767759 208 3130ft 123kts
05-Jan-20 09:41 33.804530 -117.787020 208 3119ft 114kts
05-Jan-20 09:42 33.776908 -117.804586 208 2601ft 130kts
05-Jan-20 09:43 33.748808 -117.822440 207 1596ft 93kts
05-Jan-20 09:44 33.728129 -117.835603 207 1159ft 88kts
05-Jan-20 09:45 33.704392 -117.850646 207 601ft 104kts
05-Jan-20 09:46 33.683550 -117.863920 205 161ft 79kts
05-Jan-20 09:47 33.675920 -117.869652 298 60ft 0kts
05-Jan-20 09:49 33.676153 -117.870793 208 60ft 0kts
05-Jan-20 09:50 33.675994 -117.870880 199 60ft 0kts
05-Jan-20 09:51 33.675994 -117.870880 199 60ft 0kts
05-Jan-20 09:52 33.675994 -117.870880 199 60ft 0kts
05-Jan-20 09:53 33.675994 -117.870880 199 60ft 0kts
05-Jan-20 09:54 33.675994 -117.870880 199 60ft 0kts
05-Jan-20 09:55 33.675994 -117.870880 199 60ft 0kts
05-Jan-20 09:56 33.675994 -117.870880 199 60ft 0kts
05-Jan-20 09:57 33.675994 -117.870880 199 60ft 0kts
05-Jan-20 09:58 33.675994 -117.870880 199 60ft 0kts
05-Jan-20 09:59 33.675994 -117.870880 199 60ft 0kts

Navigation Log

Ident Type
Flight plan parsing failed, navigation log unavailable